Wapanucka, OK (73461)

9:14 PM CDT on August 22, 2014 (GMT -0500)
APRSWXNET Coalgate OK US | Change Station
CLOSE
Current Station
Personal Weather Station
Location: Coalgate, OK
Elevation: 623 ft
Nearby Weather Stations

Elev 623 ft 34.53 °N, 96.21 °W | Updated 40 minutes ago

Clear
Clear
87 °F
Feels Like 90 °F
N
0
Wind Variable Wind from North
Gusts 0.0 mph

Today
High -- | Low -- °F
--% Chance of Precip.
Yesterday
High -- | Low -- °F
Precip. -- in
6:52 AM 8:05 PM
Waning Crescent, 6% visible
Pressure 29.96 in
Visibility 10.0 miles
Clouds Clear
Heat Index 90 °F
Dew Point 67 °F
Humidity 52%
Rainfall -999.00 in
Snow Depth Not available.
UV 0 out of 12
Pollen 9.90 out of 12
Air Quality Not available.
Flu Activity Not available.
METAR KAQR 230155Z AUTO 00000KT 10SM CLR 30/23 A2996 RMK AO2

More Conditions Fewer Conditions

Pressure 29.96 in
Visibility 10.0 miles
Clouds Clear
Heat Index 90 °F
Dew Point 67 °F
Humidity 52%
Rainfall -999.00 in
Snow Depth Not available.
UV 0 out of 12
Pollen 9.90 out of 12
Air Quality Not available.
Flu Activity Not available.
METAR KAQR 230155Z AUTO 00000KT 10SM CLR 30/23 A2996 RMK AO2

More Conditions Fewer Conditions

10-Day Weather Forecast

Almanac

Astronomy

Aug. 22, 2014 Rise Set
Actual Time 6:52 AM CDT 8:05 PM CDT
Civil Twilight 6:25 AM CDT 8:31 PM CDT
Nautical Twilight 5:54 AM CDT 9:02 PM CDT
Astronomical Twilight 5:22 AM CDT 9:34 PM CDT
Moon 4:18 AM CDT (8/22) 6:11 PM CDT (8/22)
Length of Visible Light 14h 05m
Length of Day
13h 12m
Tomorrow will be 1m 58s shorter.
Waning Crescent, 6% of the Moon is Illuminated
Today
Waning Crescent
Aug 25
New
Sep 2
First Quarter
Sep 8
Full
Sep 15
Last Quarter

Today's Extremes

State Highs State Lows

Community

WunderPhotos

Upload Photos

1,746,346 photos uploaded!

WunderBlogs® & News

Nearby

Snow Depth

Station Depth Elevation
No new snow has been reported.

Earthquake Activity

City Distance Mag. Time & Date
Boley, Oklahoma 67 miles 3.4 9:50 PM CDT
2014-08-17
Perry, Oklahoma 137 miles 3.0 8:43 AM CDT
2014-08-17
Minimum magnitude displayed is 2.5.

Coastal Water Temperatures

Place Temperature
No Stations Reporting

Nearby Weather Stations